createdAt,value
2017-05-06T00:00:04.200Z,0
2017-05-06T00:01:14.269Z,0
2017-05-06T00:02:24.331Z,0
2017-05-06T00:03:34.732Z,0
2017-05-06T00:04:45.108Z,0
2017-05-06T00:05:55.510Z,0
2017-05-06T00:07:05.254Z,0
2017-05-06T00:08:15.632Z,0
2017-05-06T00:09:26.019Z,0
2017-05-06T00:10:36.414Z,0
2017-05-06T00:11:46.731Z,0
2017-05-06T00:12:57.127Z,0
2017-05-06T00:14:07.508Z,0
2017-05-06T00:15:17.569Z,0
2017-05-06T00:16:27.952Z,0
2017-05-06T00:17:38.261Z,0
2017-05-06T00:18:48.637Z,0
2017-05-06T00:19:59.036Z,0
2017-05-06T00:21:09.104Z,0
2017-05-06T00:22:19.536Z,0
2017-05-06T00:23:29.859Z,0
2017-05-06T00:24:40.234Z,0
2017-05-06T00:25:50.293Z,0
2017-05-06T00:27:00.673Z,0
2017-05-06T00:28:11.065Z,0
2017-05-06T00:29:21.703Z,0
2017-05-06T00:30:32.081Z,0
2017-05-06T00:31:42.461Z,0
2017-05-06T00:32:52.845Z,0
2017-05-06T00:34:02.583Z,0
2017-05-06T00:35:12.889Z,0
2017-05-06T00:36:23.287Z,0
2017-05-06T00:37:33.666Z,0
2017-05-06T00:38:44.049Z,0
2017-05-06T00:39:54.426Z,0
2017-05-06T00:41:04.802Z,0
2017-05-06T00:42:15.191Z,0
2017-05-06T00:43:25.245Z,0
2017-05-06T00:44:35.624Z,0
2017-05-06T00:45:46.052Z,0
2017-05-06T00:46:56.364Z,0
2017-05-06T00:48:06.740Z,0
2017-05-06T00:49:16.796Z,0
2017-05-06T00:50:27.188Z,0
2017-05-06T00:51:37.256Z,0
2017-05-06T00:52:47.668Z,0
2017-05-06T00:53:58.042Z,0
2017-05-06T00:55:08.425Z,0
2017-05-06T00:56:18.482Z,0
2017-05-06T00:57:28.867Z,0
2017-05-06T00:58:39.191Z,0
2017-05-06T00:59:49.262Z,0
2017-05-06T01:00:59.319Z,0
2017-05-06T01:02:09.061Z,0
2017-05-06T01:03:19.436Z,0
2017-05-06T01:04:30.067Z,0
2017-05-06T01:05:40.453Z,0
2017-05-06T01:06:50.821Z,0
2017-05-06T01:08:01.229Z,0
2017-05-06T01:09:11.615Z,0
2017-05-06T01:10:22.245Z,0
2017-05-06T01:11:32.308Z,0
2017-05-06T01:12:42.690Z,0
2017-05-06T01:13:53.070Z,0
2017-05-06T01:15:03.473Z,0
2017-05-06T01:16:14.108Z,0
2017-05-06T01:17:24.734Z,0
2017-05-06T01:18:35.108Z,0
2017-05-06T01:19:45.479Z,0
2017-05-06T01:20:55.856Z,0
2017-05-06T01:22:06.486Z,0
2017-05-06T01:23:16.869Z,0
2017-05-06T01:24:27.243Z,0
2017-05-06T01:25:37.628Z,0
2017-05-06T01:26:48.009Z,0
2017-05-06T01:27:58.640Z,0
2017-05-06T01:29:09.030Z,0
2017-05-06T01:30:19.407Z,0
2017-05-06T01:31:29.792Z,0
2017-05-06T01:32:40.189Z,0
2017-05-06T01:33:50.827Z,0
2017-05-06T01:35:01.202Z,0
2017-05-06T01:36:11.588Z,0
2017-05-06T01:37:21.661Z,0
2017-05-06T01:38:32.043Z,0
2017-05-06T01:39:42.352Z,0
2017-05-06T01:40:52.403Z,0
2017-05-06T01:42:02.791Z,0
2017-05-06T01:43:13.166Z,0
2017-05-06T01:44:23.232Z,0
2017-05-06T01:45:33.867Z,0
2017-05-06T01:46:44.248Z,0
2017-05-06T01:47:54.315Z,0
2017-05-06T01:49:04.690Z,0
2017-05-06T01:50:14.746Z,0
2017-05-06T01:51:25.375Z,0
2017-05-06T01:52:35.114Z,0
2017-05-06T01:53:45.518Z,0
2017-05-06T01:54:55.895Z,0
2017-05-06T01:56:06.276Z,0
2017-05-06T01:57:16.909Z,0
2017-05-06T01:58:27.285Z,0
2017-05-06T01:59:37.661Z,0
2017-05-06T02:00:48.044Z,0
2017-05-06T02:01:58.436Z,0
2017-05-06T02:03:09.072Z,0
2017-05-06T02:04:19.449Z,0
2017-05-06T02:05:29.826Z,0
2017-05-06T02:06:39.891Z,0
2017-05-06T02:07:49.959Z,0
2017-05-06T02:09:00.596Z,0
2017-05-06T02:10:11.031Z,0
2017-05-06T02:11:21.398Z,0
2017-05-06T02:12:31.778Z,0
2017-05-06T02:13:42.161Z,0
2017-05-06T02:14:52.787Z,0
2017-05-06T02:16:03.167Z,0
2017-05-06T02:17:13.545Z,0
2017-05-06T02:18:24.173Z,0
2017-05-06T02:19:34.547Z,0
2017-05-06T02:20:44.557Z,0
2017-05-06T02:21:54.617Z,0
2017-05-06T02:23:04.991Z,0
2017-05-06T02:24:15.371Z,0
2017-05-06T02:25:25.746Z,0
2017-05-06T02:26:36.383Z,0
2017-05-06T02:27:46.773Z,0
2017-05-06T02:28:57.200Z,0
2017-05-06T02:30:07.574Z,0
2017-05-06T02:31:17.633Z,0
2017-05-06T02:32:28.258Z,0
2017-05-06T02:33:38.321Z,0
2017-05-06T02:34:48.705Z,0
2017-05-06T02:35:59.086Z,0
2017-05-06T02:37:09.617Z,0
2017-05-06T02:38:19.919Z,0
2017-05-06T02:39:30.291Z,0
2017-05-06T02:40:40.673Z,0
2017-05-06T02:41:51.050Z,0
2017-05-06T02:43:01.420Z,0
2017-05-06T02:44:12.042Z,0
2017-05-06T02:45:22.425Z,0
2017-05-06T02:46:32.797Z,0
2017-05-06T02:47:43.179Z,0
2017-05-06T02:48:53.240Z,0
2017-05-06T02:50:03.555Z,0
2017-05-06T02:51:13.930Z,0
2017-05-06T02:52:24.310Z,0
2017-05-06T02:53:34.726Z,0
2017-05-06T02:54:45.114Z,0
2017-05-06T02:55:55.746Z,0
2017-05-06T02:57:06.154Z,0
2017-05-06T02:58:16.539Z,0
2017-05-06T02:59:26.939Z,0
2017-05-06T03:00:36.680Z,0
2017-05-06T03:01:46.994Z,0
2017-05-06T03:02:57.062Z,0
2017-05-06T03:04:07.124Z,0
2017-05-06T03:05:17.180Z,0
2017-05-06T03:06:27.560Z,0
2017-05-06T03:07:37.870Z,0
2017-05-06T03:08:48.247Z,0
2017-05-06T03:09:58.308Z,0
2017-05-06T03:11:08.687Z,0
2017-05-06T03:12:19.068Z,0
2017-05-06T03:13:29.388Z,0
2017-05-06T03:14:39.771Z,0
2017-05-06T03:15:50.148Z,0
2017-05-06T03:17:00.555Z,0
2017-05-06T03:18:10.927Z,0
2017-05-06T03:19:21.251Z,0
2017-05-06T03:20:31.623Z,0
2017-05-06T03:21:41.694Z,0
2017-05-06T03:22:52.080Z,0
2017-05-06T03:24:02.456Z,0
2017-05-06T03:25:13.091Z,0
2017-05-06T03:26:23.148Z,0
2017-05-06T03:27:33.203Z,0
2017-05-06T03:28:43.586Z,0
2017-05-06T03:29:53.644Z,0
2017-05-06T03:31:04.279Z,0
2017-05-06T03:32:14.647Z,0
2017-05-06T03:33:25.017Z,4
2017-05-06T03:34:35.083Z,0
2017-05-06T03:35:45.458Z,0
2017-05-06T03:36:56.085Z,4
2017-05-06T03:38:06.148Z,0
2017-05-06T03:39:16.529Z,4
2017-05-06T03:40:26.902Z,4
2017-05-06T03:41:37.287Z,4
2017-05-06T03:42:47.918Z,4
2017-05-06T03:43:58.303Z,4
2017-05-06T03:45:08.716Z,4
2017-05-06T03:46:19.085Z,4
2017-05-06T03:47:29.463Z,4
2017-05-06T03:48:40.096Z,4
2017-05-06T03:49:50.492Z,4
2017-05-06T03:51:00.868Z,4
2017-05-06T03:52:11.243Z,4
2017-05-06T03:53:21.629Z,4
2017-05-06T03:54:32.267Z,4
2017-05-06T03:55:42.359Z,4
2017-05-06T03:56:52.728Z,4
2017-05-06T03:58:03.110Z,4
2017-05-06T03:59:13.478Z,4
2017-05-06T04:00:23.800Z,4
2017-05-06T04:01:33.854Z,4
2017-05-06T04:02:44.239Z,4
2017-05-06T04:03:54.638Z,4
2017-05-06T04:05:04.703Z,4
2017-05-06T04:06:15.332Z,4
2017-05-06T04:07:25.391Z,4
2017-05-06T04:08:35.776Z,4
2017-05-06T04:09:46.557Z,8
2017-05-06T04:10:56.303Z,4
2017-05-06T04:12:06.988Z,8
2017-05-06T04:13:17.311Z,4
2017-05-06T04:14:27.303Z,8
2017-05-06T04:15:37.578Z,8
2017-05-06T04:16:47.856Z,4
2017-05-06T04:17:58.400Z,8
2017-05-06T04:19:08.674Z,8
2017-05-06T04:20:18.639Z,8
2017-05-06T04:21:28.604Z,8
2017-05-06T04:22:38.878Z,8
2017-05-06T04:23:49.110Z,8
2017-05-06T04:24:59.392Z,8
2017-05-06T04:26:09.669Z,8
2017-05-06T04:27:19.950Z,12
2017-05-06T04:28:30.236Z,8
2017-05-06T04:29:40.764Z,12
2017-05-06T04:30:50.792Z,8
2017-05-06T04:32:00.761Z,8
2017-05-06T04:33:11.037Z,8
2017-05-06T04:34:21.325Z,8
2017-05-06T04:35:31.855Z,8
2017-05-06T04:36:42.137Z,12
2017-05-06T04:37:52.116Z,8
2017-05-06T04:39:02.087Z,12
2017-05-06T04:40:12.056Z,8
2017-05-06T04:41:22.589Z,12
2017-05-06T04:42:32.258Z,12
2017-05-06T04:43:42.536Z,12
2017-05-06T04:44:52.823Z,12
2017-05-06T04:46:02.790Z,8
2017-05-06T04:47:13.350Z,12
2017-05-06T04:48:23.624Z,12
2017-05-06T04:49:33.905Z,12
2017-05-06T04:50:44.189Z,12
2017-05-06T04:51:54.162Z,8
2017-05-06T04:53:04.699Z,8
2017-05-06T04:54:14.972Z,12
2017-05-06T04:55:24.941Z,216
2017-05-06T04:56:34.295Z,636
2017-05-06T04:57:44.586Z,628
2017-05-06T04:58:55.115Z,608
2017-05-06T05:00:05.392Z,580
2017-05-06T05:01:15.674Z,612
2017-05-06T05:02:25.347Z,676
2017-05-06T05:03:35.629Z,736
2017-05-06T05:04:46.163Z,700
2017-05-06T05:05:56.136Z,748
2017-05-06T05:07:06.103Z,784
2017-05-06T05:08:16.385Z,828
2017-05-06T05:09:26.352Z,928
2017-05-06T05:10:36.885Z,872
2017-05-06T05:11:47.161Z,864
2017-05-06T05:12:57.125Z,948
2017-05-06T05:14:07.405Z,1040
2017-05-06T05:15:17.479Z,1020
2017-05-06T05:16:28.033Z,1060
2017-05-06T05:17:38.310Z,1128
2017-05-06T05:18:48.280Z,1232
2017-05-06T05:19:58.561Z,1192
2017-05-06T05:21:08.538Z,1188
2017-05-06T05:22:19.167Z,1172
2017-05-06T05:23:28.511Z,1184
2017-05-06T05:24:38.783Z,1132
2017-05-06T05:25:48.753Z,1148
2017-05-06T05:26:59.033Z,1060
2017-05-06T05:28:09.246Z,1072
2017-05-06T05:29:19.539Z,1228
2017-05-06T05:30:29.815Z,1328
2017-05-06T05:31:39.786Z,1228
2017-05-06T05:32:50.080Z,1252
2017-05-06T05:34:00.619Z,1232
2017-05-06T05:35:10.597Z,1172
2017-05-06T05:36:20.878Z,1204
2017-05-06T05:37:31.168Z,1340
2017-05-06T05:38:41.126Z,1596
2017-05-06T05:39:51.357Z,1740
2017-05-06T05:41:01.330Z,1908
2017-05-06T05:42:11.620Z,1928
2017-05-06T05:43:21.596Z,1884
2017-05-06T05:44:31.875Z,1820
2017-05-06T05:45:42.151Z,1776
2017-05-06T05:46:52.485Z,1876
2017-05-06T05:48:02.140Z,1904
2017-05-06T05:49:12.420Z,1724
2017-05-06T05:50:22.391Z,1744
2017-05-06T05:51:32.929Z,1700
2017-05-06T05:52:42.894Z,1676
2017-05-06T05:53:53.169Z,1624
2017-05-06T05:55:03.453Z,1732
2017-05-06T05:56:13.748Z,1872
2017-05-06T05:57:23.970Z,1836
2017-05-06T05:58:33.947Z,1564
2017-05-06T05:59:44.238Z,1524
2017-05-06T06:00:54.516Z,1876
2017-05-06T06:02:04.997Z,1988
2017-05-06T06:03:15.530Z,2120
2017-05-06T06:04:25.495Z,2144
2017-05-06T06:05:35.778Z,2100
2017-05-06T06:06:46.069Z,1944
2017-05-06T06:07:56.362Z,1920
2017-05-06T06:09:06.889Z,1924
2017-05-06T06:10:16.861Z,1976
2017-05-06T06:11:27.139Z,2000
2017-05-06T06:12:37.421Z,2076
2017-05-06T06:13:47.702Z,2156
2017-05-06T06:14:58.231Z,2252
2017-05-06T06:16:08.513Z,2356
2017-05-06T06:17:18.488Z,2468
2017-05-06T06:18:28.772Z,2480
2017-05-06T06:19:39.060Z,2472
2017-05-06T06:20:49.744Z,2524
2017-05-06T06:22:00.068Z,2600
2017-05-06T06:23:10.348Z,2648
2017-05-06T06:24:20.628Z,2628
2017-05-06T06:25:30.927Z,2540
2017-05-06T06:26:41.461Z,2548
2017-05-06T06:27:51.726Z,2644
2017-05-06T06:29:01.981Z,2696
2017-05-06T06:30:12.246Z,2716
2017-05-06T06:31:22.503Z,2656
2017-05-06T06:32:32.700Z,2612
2017-05-06T06:33:42.954Z,2664
2017-05-06T06:34:53.209Z,2700
2017-05-06T06:36:03.214Z,2664
2017-05-06T06:37:12.860Z,2588
2017-05-06T06:38:23.082Z,2516
2017-05-06T06:39:33.334Z,2308
2017-05-06T06:40:43.616Z,2204
2017-05-06T06:41:54.073Z,2276
2017-05-06T06:43:04.059Z,2468
2017-05-06T06:44:14.587Z,2516
2017-05-06T06:45:24.874Z,2448
2017-05-06T06:46:35.172Z,2372
2017-05-06T06:47:45.143Z,2368
2017-05-06T06:48:55.122Z,2388
2017-05-06T06:50:05.657Z,2408
2017-05-06T06:51:15.933Z,2400
2017-05-06T06:52:26.471Z,2392
2017-05-06T06:53:36.441Z,2356
2017-05-06T06:54:46.724Z,2320
2017-05-06T06:55:56.951Z,2300
2017-05-06T06:57:07.238Z,2276
2017-05-06T06:58:17.527Z,2280
2017-05-06T06:59:27.808Z,2344
2017-05-06T07:00:38.091Z,2396
2017-05-06T07:01:48.624Z,2484
2017-05-06T07:02:58.614Z,2592
2017-05-06T07:04:08.584Z,2644
2017-05-06T07:05:18.863Z,2624
2017-05-06T07:06:29.144Z,2524
2017-05-06T07:07:39.678Z,2576
2017-05-06T07:08:49.658Z,2564
2017-05-06T07:09:59.942Z,2508
2017-05-06T07:11:09.925Z,2400
2017-05-06T07:12:20.214Z,2224
2017-05-06T07:13:30.588Z,1928
2017-05-06T07:14:40.560Z,1672
2017-05-06T07:15:49.908Z,1508
2017-05-06T07:16:59.872Z,1684
2017-05-06T07:18:09.861Z,1884
2017-05-06T07:19:20.382Z,2168
2017-05-06T07:20:30.664Z,2308
2017-05-06T07:21:40.944Z,2704
2017-05-06T07:22:51.248Z,2876
2017-05-06T07:24:01.215Z,2824
2017-05-06T07:25:11.744Z,2532
2017-05-06T07:26:21.399Z,2300
2017-05-06T07:27:31.908Z,2400
2017-05-06T07:28:41.883Z,2268
2017-05-06T07:29:52.162Z,2196
2017-05-06T07:31:02.704Z,2180
2017-05-06T07:32:12.987Z,2212
2017-05-06T07:33:23.513Z,2292
2017-05-06T07:34:33.790Z,2320
2017-05-06T07:35:44.070Z,2212
2017-05-06T07:36:53.986Z,2280
2017-05-06T07:38:04.290Z,2512
2017-05-06T07:39:14.576Z,2876
2017-05-06T07:40:24.550Z,3088
2017-05-06T07:41:34.846Z,2844
2017-05-06T07:42:45.384Z,2560
2017-05-06T07:43:55.665Z,2456
2017-05-06T07:45:05.953Z,2416
2017-05-06T07:46:15.949Z,2520
2017-05-06T07:47:26.230Z,2512
2017-05-06T07:48:36.767Z,2412
2017-05-06T07:49:46.758Z,2588
2017-05-06T07:50:57.055Z,2872
2017-05-06T07:52:07.337Z,3140
2017-05-06T07:53:17.629Z,3440
2017-05-06T07:54:28.205Z,3732
2017-05-06T07:55:38.493Z,4144
2017-05-06T07:56:48.776Z,4200
2017-05-06T07:57:59.066Z,4024
2017-05-06T07:59:09.349Z,3924
2017-05-06T08:00:19.917Z,4044
2017-05-06T08:01:30.201Z,4316
2017-05-06T08:02:40.496Z,4404
2017-05-06T08:03:50.786Z,4540
2017-05-06T08:05:00.768Z,4356
2017-05-06T08:06:10.991Z,4056
2017-05-06T08:07:21.273Z,3908
2017-05-06T08:08:31.264Z,3880
2017-05-06T08:09:40.929Z,3744
2017-05-06T08:10:50.904Z,3768
2017-05-06T08:12:01.437Z,3768
2017-05-06T08:13:11.718Z,3672
2017-05-06T08:14:22.010Z,3744
2017-05-06T08:15:31.989Z,3916
2017-05-06T08:16:41.969Z,4016
2017-05-06T08:17:52.499Z,4060
2017-05-06T08:19:02.776Z,4156
2017-05-06T08:20:12.743Z,4276
2017-05-06T08:21:23.050Z,4336
2017-05-06T08:22:33.329Z,4312
2017-05-06T08:23:43.957Z,4308
2017-05-06T08:24:54.245Z,4388
2017-05-06T08:26:04.525Z,4520
2017-05-06T08:27:14.819Z,4520
2017-05-06T08:28:25.102Z,4500
2017-05-06T08:29:35.641Z,4508
2017-05-06T08:30:45.935Z,4436
2017-05-06T08:31:55.622Z,4308
2017-05-06T08:33:05.632Z,4228
2017-05-06T08:34:15.910Z,4292
2017-05-06T08:35:26.446Z,4320
2017-05-06T08:36:36.460Z,4388
2017-05-06T08:37:46.450Z,4392
2017-05-06T08:38:56.443Z,4332
2017-05-06T08:40:06.726Z,4188
2017-05-06T08:41:16.994Z,4068
2017-05-06T08:42:27.276Z,4084
2017-05-06T08:43:36.965Z,4132
2017-05-06T08:44:47.247Z,4244
2017-05-06T08:45:57.526Z,4144
2017-05-06T08:47:08.081Z,4068
2017-05-06T08:48:18.382Z,4088
2017-05-06T08:49:28.666Z,4132
2017-05-06T08:50:38.340Z,4116
2017-05-06T08:51:48.644Z,4172
2017-05-06T08:52:58.882Z,4252
2017-05-06T08:54:08.567Z,4244
2017-05-06T08:55:18.867Z,4240
2017-05-06T08:56:28.840Z,4156
2017-05-06T08:57:38.930Z,4112
2017-05-06T08:58:49.521Z,3988
2017-05-06T08:59:59.492Z,3784
2017-05-06T09:01:09.785Z,3524
2017-05-06T09:02:20.586Z,3328
2017-05-06T09:03:30.876Z,3308
2017-05-06T09:04:41.108Z,3408
2017-05-06T09:05:51.407Z,3552
2017-05-06T09:07:01.695Z,3632
2017-05-06T09:08:11.981Z,3640
2017-05-06T09:09:21.962Z,3572
2017-05-06T09:10:31.875Z,3528
2017-05-06T09:11:42.172Z,3684
2017-05-06T09:12:52.459Z,3936
2017-05-06T09:14:02.777Z,4192
2017-05-06T09:15:13.066Z,4308
2017-05-06T09:16:23.605Z,4224
2017-05-06T09:17:33.901Z,4268
2017-05-06T09:18:43.879Z,4284
2017-05-06T09:19:54.182Z,4212
2017-05-06T09:21:03.847Z,4048
2017-05-06T09:22:14.400Z,3880
2017-05-06T09:23:24.688Z,3804
2017-05-06T09:24:34.974Z,3856
2017-05-06T09:25:45.263Z,4124
2017-05-06T09:26:55.559Z,4140
2017-05-06T09:28:06.102Z,3584
2017-05-06T09:29:16.395Z,3120
2017-05-06T09:30:26.697Z,3116
2017-05-06T09:31:37.029Z,3552
2017-05-06T09:32:46.681Z,3468
2017-05-06T09:33:56.906Z,3140
2017-05-06T09:35:07.202Z,3056
2017-05-06T09:36:17.195Z,3124
2017-05-06T09:37:27.494Z,3000
2017-05-06T09:38:37.167Z,2888
2017-05-06T09:39:47.761Z,2732
2017-05-06T09:40:58.039Z,2680
2017-05-06T09:42:08.336Z,2728
2017-05-06T09:43:18.621Z,2884
2017-05-06T09:44:28.921Z,3172
2017-05-06T09:45:39.207Z,3284
2017-05-06T09:46:49.503Z,3144
2017-05-06T09:47:59.824Z,2972
2017-05-06T09:49:10.118Z,2884
2017-05-06T09:50:20.411Z,2648
2017-05-06T09:51:30.352Z,2572
2017-05-06T09:52:40.027Z,2632
2017-05-06T09:53:50.318Z,2784
2017-05-06T09:55:00.607Z,2892
2017-05-06T09:56:10.902Z,2980
2017-05-06T09:57:21.441Z,2960
2017-05-06T09:58:31.725Z,3116
2017-05-06T09:59:41.726Z,3200
2017-05-06T10:00:52.019Z,3120
2017-05-06T10:02:02.002Z,3140
2017-05-06T10:03:12.223Z,3420
2017-05-06T10:04:22.664Z,3472
2017-05-06T10:05:32.340Z,3344
2017-05-06T10:06:42.633Z,3164
2017-05-06T10:07:52.610Z,3392
2017-05-06T10:09:02.642Z,3612
2017-05-06T10:10:12.929Z,3536
2017-05-06T10:11:23.222Z,3388
2017-05-06T10:12:33.519Z,3464
2017-05-06T10:13:43.815Z,3404
2017-05-06T10:14:54.360Z,3556
2017-05-06T10:16:04.654Z,3608
2017-05-06T10:17:14.685Z,3780
2017-05-06T10:18:24.984Z,3948
2017-05-06T10:19:34.969Z,4084
2017-05-06T10:20:45.213Z,4312
2017-05-06T10:21:55.518Z,4304
2017-05-06T10:23:05.503Z,3976
2017-05-06T10:24:15.490Z,4008
2017-05-06T10:25:25.776Z,4400
2017-05-06T10:26:36.316Z,4380
2017-05-06T10:27:46.596Z,4284
2017-05-06T10:28:56.891Z,4372
2017-05-06T10:30:07.209Z,4300
2017-05-06T10:31:17.500Z,3940
2017-05-06T10:32:28.034Z,3540
2017-05-06T10:33:38.317Z,3296
2017-05-06T10:34:48.341Z,3080
2017-05-06T10:35:58.630Z,2780
2017-05-06T10:37:08.606Z,2540
2017-05-06T10:38:19.141Z,2528
2017-05-06T10:39:29.114Z,2392
2017-05-06T10:40:39.095Z,2040
2017-05-06T10:41:49.390Z,1724
2017-05-06T10:42:59.673Z,1708
2017-05-06T10:44:09.589Z,2104
2017-05-06T10:45:19.874Z,2536
2017-05-06T10:46:30.192Z,2680
2017-05-06T10:47:40.481Z,2792
2017-05-06T10:48:50.456Z,3004
2017-05-06T10:50:01.020Z,3176
2017-05-06T10:51:11.009Z,3224
2017-05-06T10:52:21.299Z,3220
2017-05-06T10:53:31.594Z,3228
2017-05-06T10:54:41.567Z,2972
2017-05-06T10:55:52.115Z,2660
2017-05-06T10:57:02.430Z,2060
2017-05-06T10:58:12.398Z,1768
2017-05-06T10:59:22.697Z,1788
2017-05-06T11:00:32.380Z,1720
2017-05-06T11:01:42.935Z,1740
2017-05-06T11:02:53.221Z,1668
2017-05-06T11:04:03.200Z,1684
2017-05-06T11:05:13.503Z,1696
2017-05-06T11:06:23.805Z,1640
2017-05-06T11:07:34.358Z,1644
2017-05-06T11:08:44.347Z,1672
2017-05-06T11:09:54.343Z,1716
2017-05-06T11:11:04.316Z,1804
2017-05-06T11:12:14.314Z,1804
2017-05-06T11:13:24.959Z,1792
2017-05-06T11:14:34.936Z,1800
2017-05-06T11:15:44.911Z,1728
2017-05-06T11:16:55.208Z,1756
2017-05-06T11:18:05.513Z,1864
2017-05-06T11:19:16.054Z,1880
2017-05-06T11:20:26.040Z,1784
2017-05-06T11:21:36.023Z,1720
2017-05-06T11:22:46.315Z,1788
2017-05-06T11:23:56.299Z,1772
2017-05-06T11:25:06.868Z,1696
2017-05-06T11:26:17.302Z,1596
2017-05-06T11:27:27.599Z,1468
2017-05-06T11:28:37.571Z,1424
2017-05-06T11:29:47.850Z,1424
2017-05-06T11:30:57.464Z,1444
2017-05-06T11:32:07.746Z,1472
2017-05-06T11:33:18.050Z,1524
2017-05-06T11:34:28.335Z,1596
2017-05-06T11:35:38.631Z,1680
2017-05-06T11:36:49.167Z,1812
2017-05-06T11:37:59.444Z,2036
2017-05-06T11:39:09.744Z,2336
2017-05-06T11:40:20.054Z,2572
2017-05-06T11:41:30.339Z,2940
2017-05-06T11:42:40.895Z,3396
2017-05-06T11:43:51.433Z,3580
2017-05-06T11:45:01.736Z,3580
2017-05-06T11:46:12.021Z,3636
2017-05-06T11:47:22.359Z,3848
2017-05-06T11:48:32.890Z,3932
2017-05-06T11:49:43.172Z,3988
2017-05-06T11:50:53.141Z,4096
2017-05-06T11:52:02.805Z,4308
2017-05-06T11:53:13.092Z,4204
2017-05-06T11:54:23.323Z,3976
2017-05-06T11:55:33.604Z,3736
2017-05-06T11:56:43.903Z,3348
2017-05-06T11:57:54.211Z,3040
2017-05-06T11:59:04.493Z,2736
2017-05-06T12:00:14.736Z,2612
2017-05-06T12:01:25.026Z,2912
2017-05-06T12:02:35.310Z,3108
2017-05-06T12:03:45.594Z,3184
2017-05-06T12:04:55.578Z,3160
2017-05-06T12:06:05.807Z,3076
2017-05-06T12:07:16.108Z,2972
2017-05-06T12:08:26.400Z,2880
2017-05-06T12:09:36.376Z,2940
2017-05-06T12:10:46.657Z,3180
2017-05-06T12:11:57.213Z,3376
2017-05-06T12:13:07.518Z,3392
2017-05-06T12:14:17.814Z,3380
2017-05-06T12:15:27.795Z,3448
2017-05-06T12:16:38.082Z,3488
2017-05-06T12:17:48.627Z,3548
2017-05-06T12:18:58.304Z,3628
2017-05-06T12:20:07.984Z,3724
2017-05-06T12:21:18.269Z,3816
2017-05-06T12:22:28.558Z,3868
2017-05-06T12:23:39.123Z,3920
2017-05-06T12:24:49.406Z,3964
2017-05-06T12:25:59.733Z,4000
2017-05-06T12:27:10.059Z,4056
2017-05-06T12:28:20.358Z,4136
2017-05-06T12:29:30.272Z,4212
2017-05-06T12:30:40.566Z,4276
2017-05-06T12:31:50.550Z,4296
2017-05-06T12:33:00.859Z,4300
2017-05-06T12:34:11.164Z,4248
2017-05-06T12:35:21.702Z,4168
2017-05-06T12:36:31.986Z,4084
2017-05-06T12:37:42.268Z,3992
2017-05-06T12:38:52.569Z,3876
2017-05-06T12:40:02.544Z,3712
2017-05-06T12:41:13.112Z,3336
2017-05-06T12:42:23.397Z,3184
2017-05-06T12:43:33.691Z,3436
2017-05-06T12:44:43.979Z,3632
2017-05-06T12:45:54.274Z,3540
2017-05-06T12:47:04.817Z,3488
2017-05-06T12:48:14.791Z,3552
2017-05-06T12:49:25.085Z,3552
2017-05-06T12:50:35.375Z,3452
2017-05-06T12:51:45.733Z,3216
2017-05-06T12:52:55.968Z,2968
2017-05-06T12:54:06.251Z,2844
2017-05-06T12:55:16.231Z,2816
2017-05-06T12:56:25.895Z,2896
2017-05-06T12:57:36.186Z,3096
2017-05-06T12:58:46.839Z,3204
2017-05-06T12:59:57.131Z,3016
2017-05-06T13:01:07.110Z,2792
2017-05-06T13:02:17.085Z,2676
2017-05-06T13:03:27.399Z,2500
2017-05-06T13:04:38.142Z,2292
2017-05-06T13:05:48.432Z,2192
2017-05-06T13:06:58.717Z,2316
2017-05-06T13:08:09.009Z,2696
2017-05-06T13:09:19.303Z,3040
2017-05-06T13:10:29.847Z,3212
2017-05-06T13:11:40.142Z,3268
2017-05-06T13:12:50.448Z,3276
2017-05-06T13:14:00.742Z,3260
2017-05-06T13:15:11.066Z,3324
2017-05-06T13:16:21.609Z,3396
2017-05-06T13:17:31.903Z,3456
2017-05-06T13:18:42.191Z,3472
2017-05-06T13:19:52.486Z,3452
2017-05-06T13:21:02.791Z,3408
2017-05-06T13:22:13.343Z,3512
2017-05-06T13:23:23.641Z,3584
2017-05-06T13:24:33.933Z,3580
2017-05-06T13:25:44.333Z,3404
2017-05-06T13:26:54.621Z,3372
2017-05-06T13:28:05.194Z,3464
2017-05-06T13:29:15.498Z,3300
2017-05-06T13:30:25.581Z,2952
2017-05-06T13:31:35.876Z,2768
2017-05-06T13:32:46.159Z,2916
2017-05-06T13:33:56.793Z,3144
2017-05-06T13:35:06.474Z,3324
2017-05-06T13:36:16.787Z,3104
2017-05-06T13:37:27.072Z,3140
2017-05-06T13:38:37.372Z,3316
2017-05-06T13:39:47.929Z,3304
2017-05-06T13:40:58.227Z,3228
2017-05-06T13:42:08.531Z,3164
2017-05-06T13:43:18.818Z,3072
2017-05-06T13:44:29.108Z,3068
2017-05-06T13:45:39.658Z,3048
2017-05-06T13:46:49.948Z,3084
2017-05-06T13:48:00.239Z,3152
2017-05-06T13:49:10.217Z,3152
2017-05-06T13:50:20.516Z,3136
2017-05-06T13:51:31.049Z,3192
2017-05-06T13:52:41.355Z,3244
2017-05-06T13:53:51.360Z,3392
2017-05-06T13:55:01.637Z,3276
2017-05-06T13:56:11.931Z,3124
2017-05-06T13:57:22.494Z,3096
2017-05-06T13:58:32.833Z,3020
2017-05-06T13:59:43.143Z,3048
2017-05-06T14:00:53.123Z,3028
2017-05-06T14:02:03.440Z,2988
2017-05-06T14:03:13.980Z,3188
2017-05-06T14:04:24.277Z,3108
2017-05-06T14:05:34.573Z,3344
2017-05-06T14:06:44.857Z,3224
2017-05-06T14:07:54.843Z,3232
2017-05-06T14:09:05.380Z,3524
2017-05-06T14:10:15.688Z,3832
2017-05-06T14:11:25.984Z,3956
2017-05-06T14:12:36.278Z,4004
2017-05-06T14:13:46.573Z,4020
2017-05-06T14:14:57.114Z,4056
2017-05-06T14:16:07.097Z,4064
2017-05-06T14:17:17.377Z,4072
2017-05-06T14:18:27.039Z,3928
2017-05-06T14:19:37.340Z,3684
2017-05-06T14:20:47.623Z,3584
2017-05-06T14:21:57.910Z,3768
2017-05-06T14:23:08.039Z,3964
2017-05-06T14:24:18.356Z,4128
2017-05-06T14:25:28.462Z,4220
2017-05-06T14:26:39.011Z,4184
2017-05-06T14:27:49.305Z,4000
2017-05-06T14:28:59.608Z,3732
2017-05-06T14:30:09.894Z,3884
2017-05-06T14:31:20.183Z,3644
2017-05-06T14:32:30.731Z,3648
2017-05-06T14:33:41.028Z,3564
2017-05-06T14:34:51.316Z,3584
2017-05-06T14:36:01.607Z,3396
2017-05-06T14:37:11.897Z,3284
2017-05-06T14:38:22.433Z,3180
2017-05-06T14:39:32.943Z,3060
2017-05-06T14:40:43.244Z,2928
2017-05-06T14:41:53.235Z,2760
2017-05-06T14:43:03.527Z,2592
2017-05-06T14:44:13.155Z,2464
2017-05-06T14:45:23.120Z,2340
2017-05-06T14:46:32.836Z,36
2017-05-06T14:47:43.129Z,36
2017-05-06T14:48:53.413Z,32
2017-05-06T14:50:03.949Z,32
2017-05-06T14:51:13.971Z,32
2017-05-06T14:52:24.258Z,32
2017-05-06T14:53:34.246Z,36
2017-05-06T14:54:44.542Z,32
2017-05-06T14:55:54.765Z,32
2017-05-06T14:57:04.736Z,36
2017-05-06T14:58:15.029Z,32
2017-05-06T14:59:25.000Z,32
2017-05-06T15:00:35.282Z,32
2017-05-06T15:01:45.819Z,32
2017-05-06T15:02:56.126Z,32
2017-05-06T15:04:06.408Z,32
2017-05-06T15:05:16.381Z,32
2017-05-06T15:06:26.361Z,32
2017-05-06T15:07:36.900Z,32
2017-05-06T15:08:47.194Z,32
2017-05-06T15:09:57.490Z,32
2017-05-06T15:11:07.159Z,32
2017-05-06T15:12:17.469Z,32
2017-05-06T15:13:28.005Z,32
2017-05-06T15:14:38.299Z,32
2017-05-06T15:15:48.588Z,32
2017-05-06T15:16:58.884Z,28
2017-05-06T15:18:09.177Z,32
2017-05-06T15:19:19.708Z,32
2017-05-06T15:20:29.987Z,28
2017-05-06T15:21:40.271Z,32
2017-05-06T15:22:50.552Z,28
2017-05-06T15:24:00.849Z,32
2017-05-06T15:25:11.066Z,32
2017-05-06T15:26:21.363Z,36
2017-05-06T15:27:31.329Z,32
2017-05-06T15:28:41.626Z,32
2017-05-06T15:29:51.913Z,32
2017-05-06T15:31:02.455Z,36
2017-05-06T15:32:12.760Z,36
2017-05-06T15:33:23.049Z,32
2017-05-06T15:34:33.343Z,36
2017-05-06T15:35:43.342Z,36
2017-05-06T15:36:53.567Z,32
2017-05-06T15:38:03.568Z,36
2017-05-06T15:39:13.869Z,36
2017-05-06T15:40:24.159Z,36
2017-05-06T15:41:34.448Z,36
2017-05-06T15:42:44.977Z,36
2017-05-06T15:43:55.255Z,36
2017-05-06T15:45:05.561Z,36
2017-05-06T15:46:15.842Z,40
2017-05-06T15:47:26.130Z,36
2017-05-06T15:48:36.663Z,36
2017-05-06T15:49:46.641Z,40
2017-05-06T15:50:56.631Z,36
2017-05-06T15:52:06.923Z,36
2017-05-06T15:53:17.213Z,36
2017-05-06T15:54:27.121Z,36
2017-05-06T15:55:37.399Z,36
2017-05-06T15:56:47.699Z,36
2017-05-06T15:57:57.983Z,32
2017-05-06T15:59:07.955Z,36
2017-05-06T16:00:18.492Z,36
2017-05-06T16:01:28.786Z,32
2017-05-06T16:02:39.107Z,32
2017-05-06T16:03:49.405Z,36
2017-05-06T16:04:59.753Z,32
2017-05-06T16:06:10.793Z,32
2017-05-06T16:07:20.768Z,32
2017-05-06T16:08:31.049Z,32
2017-05-06T16:09:40.729Z,32